Time;durP1;ratioP1;P1;durP2;ratioP2;P2;SDS_P1;SDS_P2;PMS_P1;PMS_P2;Temp;Humidity;BMP_temperature;BMP_pressure;BME280_temperature;BME280_humidity;BME280_pressure;Samples;Min_cycle;Max_cycle;Signal;HPM_P1;HPM_P2
2022/04/20 00:02:09;;;;;;;2.38;1.20;;;;;;;10.54;100.00;100264.22;7392341;19;20340;-53
2022/04/20 00:04:36;;;;;;;0.75;0.73;;;;;;;10.53;100.00;100257.09;7392434;19;20015;-53
2022/04/20 00:07:02;;;;;;;2.38;0.60;;;;;;;10.45;100.00;100257.88;7394346;19;20034;-53
2022/04/20 00:09:29;;;;;;;1.10;0.90;;;;;;;10.37;100.00;100262.97;7394084;19;20030;-53
2022/04/20 00:11:55;;;;;;;18.50;1.25;;;;;;;10.36;100.00;100261.44;7397344;19;20011;-53
2022/04/20 00:14:21;;;;;;;1.02;0.95;;;;;;;10.39;100.00;100252.16;7397332;19;20015;-53
2022/04/20 00:16:47;;;;;;;0.35;0.35;;;;;;;10.46;100.00;100251.81;7400913;19;20019;-53
2022/04/20 00:19:14;;;;;;;2.63;0.77;;;;;;;10.48;100.00;100246.56;7403418;19;20433;-53
2022/04/20 00:21:40;;;;;;;2.45;1.15;;;;;;;10.51;100.00;100244.84;7400513;19;20006;-53
2022/04/20 00:24:06;;;;;;;6.43;0.80;;;;;;;10.55;100.00;100246.25;7400066;19;20345;-53
2022/04/20 00:26:32;;;;;;;0.20;0.20;;;;;;;10.54;100.00;100247.50;7400729;19;20030;-53
2022/04/20 00:28:58;;;;;;;0.43;0.43;;;;;;;10.53;100.00;100243.16;7401301;19;20010;-53
2022/04/20 00:31:24;;;;;;;0.70;0.70;;;;;;;10.48;100.00;100243.78;7398585;19;20034;-53
2022/04/20 00:33:51;;;;;;;0.98;0.70;;;;;;;10.48;100.00;100246.56;7396693;19;20014;-53
2022/04/20 00:36:17;;;;;;;0.95;0.30;;;;;;;10.56;100.00;100230.31;7398378;19;20352;-53
2022/04/20 00:38:43;;;;;;;0.50;0.50;;;;;;;10.73;100.00;100236.31;7400971;19;20452;-53
2022/04/20 00:41:10;;;;;;;0.52;0.50;;;;;;;10.82;100.00;100230.72;7398280;19;20027;-54
2022/04/20 00:43:37;;;;;;;0.35;0.35;;;;;;;10.86;100.00;100231.34;7400619;19;20025;-54
2022/04/20 00:46:05;;;;;;;1.10;0.93;;;;;;;10.89;100.00;100231.19;7398653;19;20023;-53
2022/04/20 00:48:35;;;;;;;0.20;0.20;;;;;;;10.94;100.00;100238.13;7399061;19;20014;-53
2022/04/20 00:51:02;;;;;;;0.50;0.50;;;;;;;10.98;100.00;100222.03;7398365;19;20454;-53
2022/04/20 00:53:28;;;;;;;0.68;0.45;;;;;;;11.07;100.00;100219.19;7397783;19;20006;-53
2022/04/20 00:55:55;;;;;;;0.32;0.32;;;;;;;11.08;100.00;100226.31;7398026;19;20039;-53
2022/04/20 00:58:23;;;;;;;0.30;0.30;;;;;;;11.12;100.00;100221.34;7398110;19;20010;-53
2022/04/20 01:00:49;;;;;;;0.65;0.60;;;;;;;11.18;100.00;100219.47;7397988;19;20006;-53
2022/04/20 01:03:16;;;;;;;2.92;0.47;;;;;;;11.21;100.00;100212.97;7397150;19;20073;-53
2022/04/20 01:06:00;;;;;;;0.30;0.30;;;;;;;11.13;100.00;100218.09;7398628;19;20014;-53
2022/04/20 01:08:52;;;;;;;0.65;0.30;;;;;;;10.98;100.00;100214.41;7395413;19;20327;-53
2022/04/20 01:11:41;;;;;;;0.40;0.40;;;;;;;10.87;100.00;100216.94;7394152;19;20039;-53
2022/04/20 01:14:46;;;;;;;0.30;0.30;;;;;;;10.78;100.00;100213.41;7393936;19;20506;-53
2022/04/20 01:17:30;;;;;;;0.77;0.73;;;;;;;10.60;100.00;100208.66;7395712;19;20015;-53
2022/04/20 01:20:03;;;;;;;0.65;0.65;;;;;;;10.49;100.00;100200.78;7397587;19;20342;-53
2022/04/20 01:22:42;;;;;;;0.70;0.70;;;;;;;10.37;100.00;100212.84;7395547;19;20025;-53
2022/04/20 01:25:26;;;;;;;0.82;0.73;;;;;;;10.26;100.00;100212.56;7396472;19;20011;-53
2022/04/20 01:28:17;;;;;;;0.38;0.38;;;;;;;10.04;100.00;100206.34;7395582;19;20426;-53
2022/04/20 01:31:17;;;;;;;0.43;0.40;;;;;;;10.17;100.00;100206.22;7395275;19;20025;-53
2022/04/20 01:34:09;;;;;;;0.40;0.40;;;;;;;10.07;100.00;100210.22;7395765;19;20015;-53
2022/04/20 01:36:37;;;;;;;0.28;0.28;;;;;;;10.03;100.00;100210.34;7398114;19;20454;-53
2022/04/20 01:39:03;;;;;;;1.10;0.65;;;;;;;9.97;100.00;100206.66;7397682;19;20537;-53
2022/04/20 01:41:29;;;;;;;0.77;0.77;;;;;;;9.88;100.00;100204.63;7396524;19;20007;-53
2022/04/20 01:43:56;;;;;;;0.85;0.57;;;;;;;9.83;100.00;100212.81;7394262;19;20015;-53
2022/04/20 01:46:46;;;;;;;0.22;0.20;;;;;;;9.69;100.00;100203.06;7396888;19;20014;-53
2022/04/20 01:49:41;;;;;;;0.70;0.70;;;;;;;9.59;100.00;100215.41;7400103;19;20011;-53
2022/04/20 01:52:18;;;;;;;4.28;1.00;;;;;;;9.47;100.00;100210.72;7396722;19;20455;-53
2022/04/20 01:55:13;;;;;;;0.60;0.60;;;;;;;9.43;100.00;100215.66;7392902;19;20014;-53
2022/04/20 01:58:00;;;;;;;5.18;0.55;;;;;;;9.43;100.00;100217.66;7396707;19;20070;-53
2022/04/20 02:00:37;;;;;;;0.52;0.52;;;;;;;9.33;100.00;100216.09;7400215;19;20026;-53
2022/04/20 02:03:23;;;;;;;1.35;0.47;;;;;;;9.22;100.00;100218.53;7397743;19;20260;-53
2022/04/20 02:06:00;;;;;;;2.28;0.35;;;;;;;9.12;100.00;100210.16;7396088;19;20014;-53
2022/04/20 02:08:42;;;;;;;0.20;0.20;;;;;;;9.10;100.00;100215.41;7395459;19;20085;-53
2022/04/20 02:11:25;;;;;;;3.38;0.75;;;;;;;9.15;100.00;100223.13;7395705;19;20019;-53
2022/04/20 02:14:02;;;;;;;1.35;0.60;;;;;;;9.33;100.00;100219.66;7392505;19;20018;-53
2022/04/20 02:16:29;;;;;;;0.60;0.60;;;;;;;9.42;100.00;100216.88;7394707;19;20066;-53
2022/04/20 02:19:13;;;;;;;0.95;0.65;;;;;;;9.34;100.00;100203.75;7399217;19;20014;-53
2022/04/20 02:22:00;;;;;;;2.40;1.15;;;;;;;9.18;100.00;100201.22;7395077;19;20010;-53
2022/04/20 02:24:26;;;;;;;0.82;0.63;;;;;;;9.08;100.00;100212.31;7397102;19;20034;-54
2022/04/20 02:26:52;;;;;;;9.43;1.13;;;;;;;8.99;100.00;100198.38;7390707;19;20011;-79
2022/04/20 02:29:19;;;;;;;1.10;0.50;;;;;;;8.92;100.00;100201.41;7393834;19;20086;-79
2022/04/20 02:31:45;;;;;;;2.97;1.20;;;;;;;8.97;100.00;100200.03;7390062;19;20476;-80
2022/04/20 02:34:11;;;;;;;0.40;0.40;;;;;;;9.23;100.00;100203.38;7391483;19;20011;-79
2022/04/20 02:36:37;;;;;;;2.40;0.52;;;;;;;9.21;100.00;100205.84;7389124;19;20466;-79
2022/04/20 02:39:05;;;;;;;0.13;0.13;;;;;;;9.09;100.00;100202.75;7393611;19;20338;-79
2022/04/20 02:41:35;;;;;;;0.60;0.52;;;;;;;9.00;100.00;100208.25;7394237;19;20010;-80
2022/04/20 02:44:02;;;;;;;0.52;0.52;;;;;;;8.87;100.00;100206.78;7393284;19;20433;-79
2022/04/20 02:46:28;;;;;;;0.63;0.63;;;;;;;8.88;100.00;100205.59;7391553;19;20931;-80
2022/04/20 02:48:55;;;;;;;0.52;0.52;;;;;;;8.88;100.00;100200.03;7394997;19;20539;-80
2022/04/20 02:51:21;;;;;;;0.30;0.30;;;;;;;8.89;100.00;100199.56;7393619;19;20468;-80
2022/04/20 02:53:47;;;;;;;4.30;0.60;;;;;;;9.19;100.00;100197.97;7390414;19;20007;-80
2022/04/20 02:56:14;;;;;;;1.20;0.88;;;;;;;9.38;100.00;100198.81;7390319;19;20073;-80
2022/04/20 02:58:41;;;;;;;0.30;0.30;;;;;;;9.39;100.00;100197.59;7390720;19;20047;-80
2022/04/20 03:01:07;;;;;;;0.30;0.30;;;;;;;9.33;100.00;100197.44;7390586;19;20027;-79
2022/04/20 03:03:37;;;;;;;0.77;0.77;;;;;;;9.36;100.00;100199.28;7391919;19;20014;-80
2022/04/20 03:06:15;;;;;;;2.20;0.65;;;;;;;9.25;100.00;100200.94;7388343;19;20069;-80
2022/04/20 03:08:41;;;;;;;1.38;0.98;;;;;;;9.09;100.00;100197.19;7391597;19;20019;-80
2022/04/20 03:11:11;;;;;;;0.35;0.35;;;;;;;8.99;100.00;100197.59;7391131;19;20361;-80
2022/04/20 03:13:37;;;;;;;1.45;0.57;;;;;;;8.90;100.00;100189.97;7391043;19;20006;-81
2022/04/20 03:16:04;;;;;;;0.65;0.65;;;;;;;8.89;100.00;100190.44;7389776;19;20027;-79
2022/04/20 03:18:32;;;;;;;0.22;0.22;;;;;;;8.78;100.00;100195.63;7392509;19;20567;-80
2022/04/20 03:21:02;;;;;;;2.58;1.45;;;;;;;8.65;100.00;100192.94;7390992;19;20027;-79
2022/04/20 03:23:29;;;;;;;0.47;0.47;;;;;;;8.65;100.00;100192.16;7391471;19;20381;-79
2022/04/20 03:26:00;;;;;;;0.50;0.50;;;;;;;8.61;100.00;100195.09;7387592;19;20014;-79
2022/04/20 03:28:46;;;;;;;0.57;0.55;;;;;;;8.60;100.00;100196.31;7388875;19;20419;-79
2022/04/20 03:31:14;;;;;;;3.88;1.02;;;;;;;8.61;100.00;100191.53;7388433;19;20019;-79
2022/04/20 03:33:40;;;;;;;1.15;0.68;;;;;;;8.65;100.00;100197.72;7389353;19;20006;-79
2022/04/20 03:36:07;;;;;;;1.48;1.33;;;;;;;8.58;100.00;100192.44;7390527;19;20050;-80
2022/04/20 03:38:33;;;;;;;11.20;1.08;;;;;;;8.56;100.00;100192.09;7391766;19;20015;-79
2022/04/20 03:41:00;;;;;;;1.95;0.40;;;;;;;8.42;100.00;100196.22;7389907;19;20010;-79
2022/04/20 03:43:26;;;;;;;0.68;0.55;;;;;;;8.34;100.00;100194.91;7391284;19;20014;-79
2022/04/20 03:45:52;;;;;;;1.85;0.50;;;;;;;8.35;100.00;100202.00;7393692;19;20022;-80
2022/04/20 03:48:18;;;;;;;0.63;0.63;;;;;;;8.38;100.00;100201.88;7390756;19;20022;-79
2022/04/20 03:50:45;;;;;;;0.52;0.50;;;;;;;8.43;100.00;100196.97;7391994;19;20019;-79
2022/04/20 03:53:11;;;;;;;1.75;0.57;;;;;;;8.45;100.00;100194.50;7391663;19;20089;-80
2022/04/20 03:55:37;;;;;;;2.90;0.82;;;;;;;8.41;100.00;100191.88;7390515;19;20014;-79
2022/04/20 03:58:05;;;;;;;0.77;0.65;;;;;;;8.41;100.00;100194.66;7389610;19;20056;-80
2022/04/20 04:00:32;;;;;;;0.50;0.50;;;;;;;8.47;100.00;100192.81;7390224;19;20014;-80
2022/04/20 04:02:58;;;;;;;2.40;0.90;;;;;;;8.55;100.00;100188.59;7388926;19;20023;-80
2022/04/20 04:05:35;;;;;;;12.60;1.02;;;;;;;8.75;100.00;100197.31;7387658;19;20044;-81
2022/04/20 04:08:22;;;;;;;1.85;0.88;;;;;;;8.91;100.00;100193.53;7389231;19;20011;-81
2022/04/20 04:10:50;;;;;;;4.57;1.95;;;;;;;8.99;100.00;100189.25;7389517;19;20018;-80
2022/04/20 04:13:17;;;;;;;0.55;0.55;;;;;;;9.07;100.00;100196.09;7389265;19;20011;-80
2022/04/20 04:15:52;;;;;;;4.68;1.63;;;;;;;9.00;100.00;100191.59;7387666;19;20011;-80
2022/04/20 04:18:18;;;;;;;6.22;1.40;;;;;;;8.92;100.00;100198.63;7389018;19;20022;-80
2022/04/20 04:20:48;;;;;;;3.05;0.85;;;;;;;8.86;100.00;100194.91;7389987;19;20020;-80
2022/04/20 04:23:17;;;;;;;1.92;0.85;;;;;;;8.85;100.00;100201.72;7388671;19;20010;-80
2022/04/20 04:26:02;;;;;;;0.93;0.77;;;;;;;8.85;100.00;100196.16;7387617;19;20019;-80
2022/04/20 04:28:50;;;;;;;3.50;1.17;;;;;;;8.81;100.00;100205.84;7388012;19;20393;-80
2022/04/20 04:31:16;;;;;;;5.72;1.60;;;;;;;8.90;100.00;100192.75;7388510;19;20015;-80
2022/04/20 04:33:43;;;;;;;2.17;1.25;;;;;;;8.92;100.00;100195.84;7388370;19;20052;-81
2022/04/20 04:36:10;;;;;;;1.98;0.75;;;;;;;8.83;100.00;100187.50;7386218;19;20015;-82
2022/04/20 04:38:43;;;;;;;1.02;0.90;;;;;;;8.85;100.00;100190.59;7386964;19;20077;-80
2022/04/20 04:41:11;;;;;;;1.77;1.00;;;;;;;8.79;100.00;100188.88;7387594;19;20043;-80
2022/04/20 04:43:39;;;;;;;1.75;1.15;;;;;;;8.75;100.00;100186.22;7388759;19;20019;-80
2022/04/20 04:49:09;;;;;;;2.05;0.88;;;;;;;8.50;100.00;100180.84;7391668;19;20086;-80
2022/04/20 04:51:35;;;;;;;0.90;0.90;;;;;;;8.38;100.00;100188.00;7388130;19;20014;-80
2022/04/20 04:54:03;;;;;;;2.15;1.00;;;;;;;8.35;100.00;100180.59;7389556;19;20018;-80
2022/04/20 04:56:31;;;;;;;2.40;0.90;;;;;;;8.35;100.00;100186.16;7385888;19;20760;-80
2022/04/20 04:58:58;;;;;;;2.22;1.02;;;;;;;8.42;100.00;100187.88;7388605;19;20102;-80
2022/04/20 05:01:26;;;;;;;1.48;1.35;;;;;;;8.36;100.00;100196.00;7395277;19;20011;-80
2022/04/20 05:03:54;;;;;;;2.15;1.92;;;;;;;8.31;100.00;100193.03;7395685;19;20062;-80
2022/04/20 05:06:21;;;;;;;5.72;1.02;;;;;;;8.27;100.00;100187.59;7392848;19;20018;-80
2022/04/20 05:09:05;;;;;;;1.60;1.23;;;;;;;8.27;100.00;100184.09;7396451;19;20014;-80
2022/04/20 05:11:34;;;;;;;5.93;2.15;;;;;;;8.26;100.00;100196.38;7394760;19;20022;-80
2022/04/20 05:14:00;;;;;;;5.97;1.67;;;;;;;8.20;100.00;100178.75;7393389;19;20031;-80
2022/04/20 05:16:29;;;;;;;2.50;1.15;;;;;;;8.22;100.00;100187.41;7391333;19;20086;-79
2022/04/20 05:18:55;;;;;;;7.35;2.70;;;;;;;8.09;100.00;100187.47;7396312;19;20010;-79
2022/04/20 05:21:23;;;;;;;2.08;1.55;;;;;;;8.08;100.00;100187.88;7396359;19;20091;-80
2022/04/20 05:23:49;;;;;;;5.18;1.00;;;;;;;8.02;100.00;100184.16;7394095;19;20107;-80
2022/04/20 05:26:16;;;;;;;2.50;1.20;;;;;;;8.02;100.00;100189.69;7391051;19;20014;-79
2022/04/20 05:28:45;;;;;;;1.00;0.43;;;;;;;8.05;100.00;100183.25;7393691;19;20019;-80
2022/04/20 05:31:11;;;;;;;2.42;1.75;;;;;;;8.08;100.00;100187.88;7393847;19;20348;-80
2022/04/20 05:33:39;;;;;;;1.55;1.45;;;;;;;8.06;100.00;100195.88;7393606;19;20015;-80
2022/04/20 05:36:06;;;;;;;2.58;1.40;;;;;;;8.09;100.00;100183.91;7391314;19;20436;-80
2022/04/20 05:41:54;;;;;;;5.05;2.22;;;;;;;8.20;100.00;100184.31;7397027;19;20019;-80
2022/04/20 05:44:23;;;;;;;1.50;0.90;;;;;;;8.24;100.00;100190.50;7395241;19;20015;-80
2022/04/20 05:46:50;;;;;;;6.13;1.83;;;;;;;8.22;100.00;100193.72;7396103;19;20007;-81
2022/04/20 05:49:19;;;;;;;9.15;3.80;;;;;;;8.27;100.00;100182.06;7397030;19;20022;-79
2022/04/20 05:51:45;;;;;;;2.35;1.50;;;;;;;8.26;100.00;100182.53;7393073;19;20019;-80
2022/04/20 05:54:12;;;;;;;2.33;1.30;;;;;;;8.33;100.00;100193.38;7396098;19;20014;-79
2022/04/20 05:56:39;;;;;;;1.40;0.55;;;;;;;8.39;100.00;100192.34;7391158;19;20014;-80
2022/04/20 05:59:06;;;;;;;2.45;1.20;;;;;;;8.48;100.00;100194.41;7393716;19;20406;-79
2022/04/20 06:01:35;;;;;;;4.60;1.55;;;;;;;8.55;100.00;100196.91;7394447;19;20028;-79
2022/04/20 06:04:22;;;;;;;6.13;1.02;;;;;;;8.59;100.00;100197.56;7393201;19;20349;-79
2022/04/20 06:07:03;;;;;;;2.53;1.38;;;;;;;8.61;100.00;100192.31;7396036;19;20043;-79
2022/04/20 06:09:35;;;;;;;3.88;1.50;;;;;;;8.63;100.00;100195.41;7392699;19;20043;-79
2022/04/20 06:12:13;;;;;;;1.83;0.95;;;;;;;8.80;100.00;100202.28;7392990;19;20029;-79
2022/04/20 06:15:06;;;;;;;3.70;1.63;;;;;;;8.85;100.00;100196.16;7392375;19;20421;-79
2022/04/20 06:17:40;;;;;;;3.50;1.40;;;;;;;8.98;100.00;100196.84;7391740;19;20035;-79
2022/04/20 06:20:09;;;;;;;6.43;1.50;;;;;;;9.10;100.00;100195.94;7395983;19;20014;-79
2022/04/20 06:22:54;;;;;;;7.95;1.98;;;;;;;9.24;100.00;100189.06;7397564;19;20015;-79
2022/04/20 06:25:29;;;;;;;1.55;1.33;;;;;;;9.33;100.00;100193.88;7391212;19;20021;-78
2022/04/20 06:28:13;;;;;;;1.98;1.25;;;;;;;9.41;100.00;100197.91;7393793;19;20338;-80
2022/04/20 06:31:17;;;;;;;2.97;1.70;;;;;;;9.51;100.00;100202.25;7390048;19;20477;-79
2022/04/20 06:33:44;;;;;;;1.73;1.52;;;;;;;9.48;100.00;100197.63;7392032;19;20044;-80
2022/04/20 06:36:26;;;;;;;2.72;1.33;;;;;;;9.49;100.00;100199.94;7392913;19;20018;-80
2022/04/20 06:39:10;;;;;;;4.13;1.88;;;;;;;9.50;100.00;100195.16;7395350;19;20014;-79
2022/04/20 06:42:01;;;;;;;1.48;0.77;;;;;;;9.59;100.00;100200.72;7391946;19;20014;-79
2022/04/20 06:44:45;;;;;;;4.20;2.28;;;;;;;9.67;100.00;100204.75;7393469;19;20018;-79
2022/04/20 06:47:19;;;;;;;2.75;1.88;;;;;;;9.79;100.00;100207.41;7391847;19;20019;-79
2022/04/20 06:50:06;;;;;;;2.80;1.52;;;;;;;9.89;100.00;100216.53;7396728;19;20378;-79
2022/04/20 07:00:56;;;;;;;3.75;1.30;;;;;;;10.56;100.00;100205.25;7389970;19;20033;-78
2022/04/20 07:03:43;;;;;;;2.33;1.35;;;;;;;10.68;100.00;100203.53;7387505;19;20019;-79
2022/04/20 07:06:34;;;;;;;1.60;1.50;;;;;;;10.75;100.00;100211.56;7393973;19;20014;-78
2022/04/20 07:09:13;;;;;;;8.73;1.50;;;;;;;10.82;100.00;100216.81;7393337;19;20011;-78
2022/04/20 07:11:54;;;;;;;;;;;;;;;10.88;100.00;100212.13;7392707;19;20018;-78
2022/04/20 07:14:21;;;;;;;3.72;2.58;;;;;;;10.89;100.00;100208.13;7390902;19;20245;-78
2022/04/20 07:16:47;;;;;;;4.13;1.38;;;;;;;10.95;100.00;100214.59;7389910;19;20015;-77
2022/04/20 07:19:20;;;;;;;3.40;1.45;;;;;;;11.06;100.00;100212.09;7393002;19;20657;-78
2022/04/20 07:22:05;;;;;;;8.07;1.63;;;;;;;11.15;100.00;100206.47;7393773;19;20018;-79
2022/04/20 07:24:47;;;;;;;5.35;2.67;;;;;;;11.22;100.00;100217.28;7389695;19;20788;-79
2022/04/20 07:27:34;;;;;;;4.43;1.90;;;;;;;11.28;100.00;100212.63;7390434;19;20018;-79
2022/04/20 07:30:17;;;;;;;6.38;1.50;;;;;;;11.39;100.00;100212.88;7392773;19;20023;-80
2022/04/20 07:32:57;;;;;;;8.35;2.22;;;;;;;11.46;100.00;100209.72;7394453;19;20488;-79
2022/04/20 07:35:46;;;;;;;2.95;1.15;;;;;;;11.52;100.00;100213.41;7391317;19;20007;-79
2022/04/20 07:38:42;;;;;;;4.53;2.22;;;;;;;11.63;100.00;100216.44;7390700;19;20011;-79
2022/04/20 07:41:28;;;;;;;3.67;1.52;;;;;;;11.74;100.00;100215.94;7391828;19;20036;-80
2022/04/20 07:44:13;;;;;;;6.95;1.98;;;;;;;11.89;100.00;100209.19;7395662;19;20009;-79
2022/04/20 07:46:51;;;;;;;2.13;0.93;;;;;;;11.97;100.00;100207.59;7393786;19;20030;-79
2022/04/20 07:53:00;;;;;;;2.13;1.50;;;;;;;12.10;100.00;100202.53;7390257;19;20015;-79
2022/04/20 07:55:49;;;;;;;2.53;1.00;;;;;;;12.17;100.00;100204.94;7386115;19;20010;-79
2022/04/20 07:58:23;;;;;;;4.28;0.75;;;;;;;12.25;100.00;100201.78;7388531;19;20011;-79
2022/04/20 08:01:10;;;;;;;11.55;1.25;;;;;;;12.30;100.00;100201.88;7391318;19;20077;-79
2022/04/20 08:03:54;;;;;;;1.40;1.15;;;;;;;12.32;100.00;100209.78;7391395;19;20418;-79
2022/04/20 08:06:31;;;;;;;3.58;1.15;;;;;;;12.40;100.00;100200.56;7390050;19;20447;-79
2022/04/20 08:08:59;;;;;;;8.75;1.52;;;;;;;12.46;100.00;100203.44;7390392;19;20038;-79
2022/04/20 08:11:25;;;;;;;15.88;2.20;;;;;;;12.49;100.00;100203.25;7389836;19;20365;-79
2022/04/20 08:14:11;;;;;;;1.10;0.85;;;;;;;12.60;100.00;100205.50;7389034;19;20010;-79
2022/04/20 08:16:48;;;;;;;6.20;2.47;;;;;;;12.74;100.00;100205.47;7389671;19;20011;-79
2022/04/20 08:19:23;;;;;;;2.50;1.45;;;;;;;12.81;100.00;100212.72;7392998;19;20050;-79
2022/04/20 08:22:06;;;;;;;4.60;1.50;;;;;;;12.83;100.00;100204.63;7391844;19;20022;-79
2022/04/20 08:24:33;;;;;;;5.15;1.73;;;;;;;12.90;100.00;100212.63;7388498;19;20043;-79
2022/04/20 08:26:59;;;;;;;15.70;1.67;;;;;;;13.00;100.00;100197.28;7390035;19;20014;-79
2022/04/20 08:29:25;;;;;;;2.60;1.85;;;;;;;13.06;100.00;100200.19;7391328;19;20109;-79
2022/04/20 08:31:51;;;;;;;4.38;1.73;;;;;;;13.09;100.00;100188.81;7390855;19;20035;-79
2022/04/20 08:34:17;;;;;;;2.55;1.63;;;;;;;13.24;100.00;100191.56;7389785;19;20011;-79
2022/04/20 08:36:44;;;;;;;3.28;1.60;;;;;;;13.36;100.00;100191.25;7394492;19;20464;-79
2022/04/20 08:39:10;;;;;;;2.38;1.42;;;;;;;13.47;100.00;100197.00;7398562;19;20018;-79
2022/04/20 08:41:36;;;;;;;4.53;1.48;;;;;;;13.63;100.00;100187.31;7398726;19;20029;-80
2022/04/20 08:44:04;;;;;;;3.00;1.48;;;;;;;13.83;100.00;100195.72;7398083;19;20018;-79
2022/04/20 08:46:37;;;;;;;2.70;1.33;;;;;;;13.92;100.00;100200.41;7394488;19;20018;-80
2022/04/20 08:49:04;;;;;;;3.22;1.52;;;;;;;14.02;100.00;100196.19;7398262;19;20018;-80
2022/04/20 08:52:37;;;;;;;7.68;1.75;;;;;;;14.10;100.00;100188.91;7396147;19;20047;-80
2022/04/20 08:54:19;;;;;;;5.50;0.90;;;;;;;14.19;100.00;100188.75;7394144;19;20074;-79
2022/04/20 08:59:31;;;;;;;4.93;1.58;;;;;;;14.40;100.00;100182.66;7397155;19;20033;-79
2022/04/20 09:01:59;;;;;;;4.93;1.45;;;;;;;14.55;100.00;100181.78;7396296;19;20015;-78
2022/04/20 09:04:26;;;;;;;2.47;1.73;;;;;;;14.61;100.00;100180.59;7395960;19;20003;-78
2022/04/20 09:06:53;;;;;;;4.97;1.48;;;;;;;14.65;100.00;100175.53;7395738;19;20018;-78
2022/04/20 09:09:28;;;;;;;9.27;2.22;;;;;;;14.73;100.00;100176.59;7396761;19;20019;-78
2022/04/20 09:11:57;;;;;;;8.10;2.45;;;;;;;14.81;100.00;100177.69;7395275;19;20082;-79
2022/04/20 09:14:24;;;;;;;11.20;1.80;;;;;;;14.90;100.00;100163.50;7396013;19;20463;-79
2022/04/20 09:16:56;;;;;;;3.97;1.13;;;;;;;14.95;100.00;100165.59;7397652;19;20777;-79
2022/04/20 09:19:26;;;;;;;6.65;1.42;;;;;;;15.04;100.00;100165.41;7400116;19;20019;-78
2022/04/20 09:21:52;;;;;;;3.97;1.23;;;;;;;15.13;100.00;100165.22;7398723;19;20010;-79
2022/04/20 09:24:19;;;;;;;3.08;1.20;;;;;;;15.14;100.00;100161.13;7396552;19;20507;-79
2022/04/20 09:26:56;;;;;;;2.30;1.35;;;;;;;15.15;100.00;100159.88;7395522;19;20472;-79
2022/04/20 09:29:23;;;;;;;5.97;1.85;;;;;;;15.30;100.00;100150.50;7395860;19;20099;-79
2022/04/20 09:31:53;;;;;;;1.80;1.08;;;;;;;15.43;100.00;100148.03;7394397;19;20023;-79
2022/04/20 09:34:25;;;;;;;4.00;1.85;;;;;;;15.59;100.00;100145.34;7393371;19;20018;-79
2022/04/20 09:36:54;;;;;;;5.97;1.52;;;;;;;15.76;100.00;100142.63;7396190;19;20011;-79
2022/04/20 09:39:21;;;;;;;2.03;1.77;;;;;;;15.91;100.00;100132.75;7396431;19;20049;-78
2022/04/20 09:41:58;;;;;;;3.28;0.73;;;;;;;16.03;100.00;100136.34;7396379;19;20402;-79
2022/04/20 09:44:26;;;;;;;4.95;1.13;;;;;;;16.13;100.00;100126.41;7395427;19;20011;-79
2022/04/20 09:50:01;;;;;;;10.57;1.50;;;;;;;16.48;100.00;100125.97;7398972;19;20019;-79
2022/04/20 09:52:47;;;;;;;9.25;2.47;;;;;;;16.79;100.00;100124.97;7395663;19;20022;-79
2022/04/20 09:55:18;;;;;;;10.98;1.95;;;;;;;17.02;100.00;100126.50;7393905;19;20022;-79
2022/04/20 09:57:44;;;;;;;1.95;1.17;;;;;;;17.22;100.00;100121.34;7391540;19;20010;-79
2022/04/20 10:00:13;;;;;;;7.85;2.08;;;;;;;17.38;100.00;100122.59;7390604;19;20055;-79
2022/04/20 10:02:51;;;;;;;3.97;0.45;;;;;;;17.40;100.00;100115.16;7391488;19;20011;-79
2022/04/20 10:05:20;;;;;;;4.50;2.03;;;;;;;17.34;100.00;100125.69;7391523;19;20031;-79
2022/04/20 10:07:46;;;;;;;2.92;1.65;;;;;;;17.37;100.00;100115.41;7395317;19;20018;-79
2022/04/20 10:10:12;;;;;;;5.07;1.10;;;;;;;17.29;100.00;100111.59;7394860;19;20046;-79
2022/04/20 10:12:42;;;;;;;2.70;1.17;;;;;;;17.34;100.00;100120.06;7389027;19;20011;-79
2022/04/20 10:18:00;;;;;;;3.43;1.50;;;;;;;17.53;100.00;100108.22;7390550;19;20018;-78
2022/04/20 10:20:29;;;;;;;4.22;1.27;;;;;;;17.66;100.00;100106.41;7392891;19;20528;-79
2022/04/20 10:23:00;;;;;;;6.05;1.67;;;;;;;17.73;100.00;100100.22;7391165;19;20022;-79
2022/04/20 10:25:27;;;;;;;3.50;1.10;;;;;;;17.88;100.00;100106.31;7392011;19;20022;-79
2022/04/20 10:28:17;;;;;;;4.03;1.00;;;;;;;17.94;100.00;100115.47;7397734;19;20052;-80
2022/04/20 10:31:01;;;;;;;1.67;0.98;;;;;;;18.10;100.00;100100.53;7392473;19;20018;-79
2022/04/20 10:33:31;;;;;;;7.60;1.35;;;;;;;18.28;99.42;100101.94;7389876;19;20010;-79
2022/04/20 10:36:11;;;;;;;3.20;1.05;;;;;;;18.58;99.58;100104.84;7390229;19;20010;-79
2022/04/20 10:38:44;;;;;;;3.45;1.20;;;;;;;18.82;96.67;100093.59;7392682;19;20022;-79
2022/04/20 10:41:21;;;;;;;2.78;1.38;;;;;;;18.95;95.41;100099.38;7392225;19;20048;-79
2022/04/20 10:44:05;;;;;;;1.23;1.02;;;;;;;19.05;94.66;100100.59;7391716;19;20510;-79
2022/04/20 10:46:32;;;;;;;1.75;0.73;;;;;;;19.13;96.19;100092.28;7390878;19;20026;-80
2022/04/20 10:49:07;;;;;;;3.83;1.30;;;;;;;19.18;93.82;100089.41;7393558;19;20018;-80
2022/04/20 10:51:40;;;;;;;2.65;1.05;;;;;;;19.15;92.41;100096.13;7390988;19;20018;-81
2022/04/20 10:54:22;;;;;;;3.97;0.82;;;;;;;18.88;88.73;100092.25;7392316;19;20476;-79
2022/04/20 10:56:58;;;;;;;1.63;0.40;;;;;;;18.76;90.41;100092.88;7390755;19;20519;-80
2022/04/20 10:59:25;;;;;;;4.63;1.55;;;;;;;18.82;92.18;100094.38;7391253;19;20015;-79
2022/04/20 11:02:03;;;;;;;3.95;1.23;;;;;;;18.95;91.21;100090.91;7391919;19;20345;-80
2022/04/20 11:04:33;;;;;;;1.95;0.40;;;;;;;19.10;89.81;100091.28;7395867;19;20073;-80
2022/04/20 11:07:00;;;;;;;3.63;0.57;;;;;;;19.28;93.27;100081.34;7391089;19;20007;-79
2022/04/20 11:09:52;;;;;;;2.55;1.02;;;;;;;19.30;88.12;100088.00;7389835;19;20262;-80
2022/04/20 11:21:06;;;;;;;2.05;0.95;;;;;;;19.52;85.04;100067.22;7390456;19;20108;-80
2022/04/20 11:24:11;;;;;;;3.63;1.27;;;;;;;19.51;84.97;100060.81;7388390;19;20035;-79
2022/04/20 11:26:41;;;;;;;2.47;0.85;;;;;;;19.56;87.52;100062.81;7390019;19;20025;-80
2022/04/20 11:29:17;;;;;;;3.30;1.45;;;;;;;19.61;87.67;100070.44;7390885;19;20479;-80
2022/04/20 11:31:48;;;;;;;3.47;0.80;;;;;;;19.69;90.95;100062.13;7390876;19;20010;-79
2022/04/20 11:34:17;;;;;;;3.88;1.73;;;;;;;19.65;88.50;100061.66;7392107;19;20029;-80
2022/04/20 11:36:46;;;;;;;11.13;2.05;;;;;;;19.49;88.47;100057.75;7388255;19;20553;-79
2022/04/20 11:39:15;;;;;;;6.93;1.80;;;;;;;19.43;88.98;100065.53;7392589;19;20035;-79
2022/04/20 11:41:52;;;;;;;2.28;1.02;;;;;;;19.43;89.39;100068.34;7392341;19;20468;-79
2022/04/20 11:44:20;;;;;;;2.83;0.73;;;;;;;19.32;85.18;100059.97;7392048;19;20022;-80
2022/04/20 11:46:51;;;;;;;7.32;1.15;;;;;;;19.27;87.18;100060.81;7388426;19;20019;-79
2022/04/20 11:49:18;;;;;;;3.60;1.27;;;;;;;19.41;86.17;100056.81;7393981;19;20024;-79
2022/04/20 11:51:57;;;;;;;5.53;2.15;;;;;;;19.57;84.16;100053.03;7390610;19;20018;-80
2022/04/20 11:54:30;;;;;;;4.88;1.90;;;;;;;19.79;84.64;100051.22;7390010;19;20366;-80
2022/04/20 11:57:08;;;;;;;5.07;1.02;;;;;;;19.66;85.07;100041.34;7389589;19;20014;-80
2022/04/20 11:59:51;;;;;;;4.85;1.27;;;;;;;19.79;87.11;100045.56;7389983;19;20329;-79
2022/04/20 12:02:22;;;;;;;3.63;1.40;;;;;;;20.05;85.64;100040.06;7389963;19;20021;-80
2022/04/20 12:05:07;;;;;;;1.52;0.73;;;;;;;20.14;86.58;100048.16;7389744;19;20021;-80
2022/04/20 12:07:35;;;;;;;5.72;1.55;;;;;;;19.95;84.21;100044.53;7391093;19;20053;-80
2022/04/20 12:10:03;;;;;;;3.10;1.15;;;;;;;19.82;83.11;100038.81;7389768;19;20018;-80
2022/04/20 12:12:29;;;;;;;7.53;1.60;;;;;;;19.68;81.71;100030.25;7389740;19;20022;-79
2022/04/20 12:15:08;;;;;;;4.15;1.60;;;;;;;19.72;83.42;100023.56;7389642;19;20368;-80
2022/04/20 12:17:35;;;;;;;3.40;1.02;;;;;;;19.83;81.60;100029.81;7386984;19;20011;-79
2022/04/20 12:20:01;;;;;;;3.35;1.52;;;;;;;19.97;84.13;100030.63;7392236;19;20015;-79
2022/04/20 12:22:27;;;;;;;3.72;1.73;;;;;;;19.99;81.96;100013.94;7392871;19;20023;-80
2022/04/20 12:25:05;;;;;;;4.88;1.63;;;;;;;20.15;83.61;100021.38;7388268;19;20044;-79